Sherman, Wisconsin
Current Conditions -  °F | °C
As of 9:15 AM on Thursday 23 Oct 2014 (Local Time) from KPBH Reporting Station
Overcast Overcast  
Wind Chill: 38°   Ceiling: 1200
Heat Index: 43°   Visibility: 10mi
Dew Point: 41°   Wind: 8mph
Humidity: 92%   Direction: 170°S
Pressure: 30.03"   Gusts: NA
Location:  45.9599°N, 90.2362°W
Report Text: KPBH 231415Z AUTO 17007KT 10SM OVC012 06/05 A3003 RMK AO2 T00620050
Loading
Personal Weather Stations






























Interactive Weather Map New forecast layout! Learn more

10-Day Weather Forecast

Advertisements
Track Severe Weather on mobile